Airfield :
LOGIN :

Register | Disclaimer

   EN    FR    IT 

 










Legend :    VFR   Marginal VFR   IFR   Intensive IFR   Very Intensive IFR
Visi :
Ceiling :
>= 8 km
>= 3000ft
5 to 8 km
1000 to 3000 ft
1500m to 5 km
500 to 1000 ft
800 to 1500m
200 to 500 ft
< 800m
< 200 ft
Symbols :   Thunderstorms  Fog  Heavy snow  Heavy precipitations  Wind > 20 kt
SIGMETs :     Misc.  Thunderstorms  Icing  Turbulence  Mountain Waves  Volcanic Ashes






- Airport Elevation : 1465 ft


LSMP - Payerne

CURRENT METAR :
  • 170720Z 21002KT 9999 FEW007 M03/M05 Q1035 RMK BLU+

EXPIRED METARs :
  • 170650Z 00000KT 9999 FEW006 BKN120 M03/M04 Q1035 RMK BLU
  • 170620Z AUTO VRB01KT 9999NDV FEW006 M03/M04 Q1034 RMK
  • 170550Z AUTO 21003KT 9999NDV FEW006 M03/M04 Q1034 RMK
  • 170520Z AUTO 18002KT 9999NDV BKN065 M02/M03 Q1034 RMK
  • 170450Z AUTO 20002KT 9999NDV BKN065 M02/M03 Q1034 RMK
  • 170420Z AUTO VRB02KT 9999NDV BKN066 M02/M03 Q1034 RMK

Expired Forecast.



MET'MAP, your aeronautical weather chart ! - Copyright ORBIFLY December 2007 - Disclaimer

ORBIFLY MET'MAP TEAM :

Programming & Development : Alexandra Zaïnal
Concept & original design : Baudouin d'Aumeries
Assistance for programming : Marc-Olivier Méhu
Technical & hardware support : Manuel Goepfert

Contact : metmap@orbifly.com




SOURCES & CREDITS :

   NOAA